Philadelphia, PA

2:04 PM EDT on August 26, 2016 (GMT -0400)
Somerton | | Change Station

Elev 167 ft 40.13 °N, 75.00 °W | Updated 1 minute ago

Scattered Clouds
Scattered Clouds
91.2 °F
Feels Like 99 °F
N
1.6
Wind Variable Wind from NNE

Today
High -- | Low -- °F
--% Chance of Precip.
Yesterday
High -- | Low -- °F
Precip. -- in
Pressure 30.02 in
Visibility 10.0 miles
Clouds Scattered Clouds 5500 ft
Heat Index 99 °F
Dew Point 72 °F
Humidity 54%
Rainfall 0.00 in
Snow Depth Not available.
6:22 AM 7:40 PM
Waning Crescent, 32% visible
METAR KPNE 261754Z 33007KT 280V360 10SM SCT055 33/21 A3002 RMK AO2 SLP165 T03280206 10344 20256 53000
Pressure 30.02 in
Visibility 10.0 miles
Clouds Scattered Clouds 5500 ft
Heat Index 99 °F
Dew Point 72 °F
Humidity 54%
Rainfall 0.00 in
Snow Depth Not available.
6:22 AM 7:40 PM
Waning Crescent, 32% visible
METAR KPNE 261754Z 33007KT 280V360 10SM SCT055 33/21 A3002 RMK AO2 SLP165 T03280206 10344 20256 53000

10-Day Weather Forecast

Almanac

Astronomy

Aug. 26, 2016 Rise Set
Actual Time
Civil Twilight
Nautical Twilight
Astronomical Twilight
Moon
Length of Visible Light
Length of Day
Tomorrow will be .
, % of the Moon is Illuminated

Today's Extremes

State Highs State Lows

Community

WunderPhotos

Upload Photos

1,935,160 photos uploaded!

WunderBlog® & News

Nearby

Air Quality

  Air Quality AQ Index Pollutant
Not available.

Snow Depth

Station Depth Elevation

Earthquake Activity

City Distance Mag. Time & Date
Minimum magnitude displayed is 2.5.

Coastal Water Temperatures

Place Temperature

Stations

Nearby Weather Stations

Station Location Temp. Windchill Dew Point Humidity Wind Precip. Elev Updated Type
                   

Watches & Warnings

There are currently no watches in effect.